Terminal Aerodrome Forecast
Issued by NWS

Home | Current Version | Previous Version | Text Only | Print | Product List | Glossary On
Versions: 1 2 3 4 5 6 7 8 9 10 11 12 13 14 15 16 17 18
039
FTUS46 KSTO 230041 AAA
TAFSCK
TAF AMD
KSCK 230041Z 2301/2324 15015G25KT P6SM TSRA SCT030CB OVC050
      TEMPO 2301/2303 2SM SHRA OVC025
     FM230300 21010KT P6SM -SHRA OVC030
     FM230500 23010KT P6SM OVC040
     FM231200 19009KT P6SM OVC050=

USA.gov is the U.S. government's official web portal to all federal, state and local government web resources and services.